Terminal Aerodrome Forecast
Issued by NWS

Home | Current Version | Previous Version | Graphics & Text | Print | Product List | Glossary On
Versions: 1 2 3 4 5 6 7 8 9 10 11 12 13 14 15 16 17 18 19 20 21 22 23 24 25 26
598
FTUS45 KGGW 221122
TAFGDV
TAF
KGDV 221122Z 2212/2312 14013KT P6SM OVC014
     FM221400 14008KT P6SM BKN025
     FM221700 17009KT P6SM BKN050
     FM222000 21008KT P6SM SCT080
     FM230100 VRB05KT P6SM BKN150
     FM230800 28005KT P6SM BKN090=

USA.gov is the U.S. government's official web portal to all federal, state and local government web resources and services.